Time;durP1;ratioP1;P1;durP2;ratioP2;P2;SDS_P1;SDS_P2;PMS_P1;PMS_P2;Temp;Humidity;BMP_temperature;BMP_pressure;BME280_temperature;BME280_humidity;BME280_pressure;Samples;Min_cycle;Max_cycle;Signal;HPM_P1;HPM_P2
2023/12/19 00:02:06;;;;;;;72.95;30.52;;;;;;;;;;5036491;28;20405;-83
2023/12/19 00:04:58;;;;;;;69.15;29.98;;;;;;;;;;5061420;28;20538;-83
2023/12/19 00:07:33;;;;;;;69.13;30.00;;;;;;;;;;5036295;28;20423;-84
2023/12/19 00:10:05;;;;;;;74.85;32.05;;;;;;;;;;5016118;28;20499;-84
2023/12/19 00:12:32;;;;;;;72.13;32.47;;;;;;;;;;5052007;28;20463;-83
2023/12/19 00:14:58;;;;;;;79.72;33.08;;;;;;;;;;5055209;28;20414;-84
2023/12/19 00:17:34;;;;;;;71.00;32.10;;;;;;;;;;5071763;28;20434;-83
2023/12/19 00:20:03;;;;;;;76.65;32.88;;;;;;;;;;5073409;28;20750;-84
2023/12/19 00:22:32;;;;;;;70.93;31.35;;;;;;;;;;5080916;28;20407;-85
2023/12/19 00:25:04;;;;;;;78.65;32.28;;;;;;;;;;5073380;28;21145;-84
2023/12/19 00:27:38;;;;;;;81.38;32.65;;;;;;;;;;5067026;28;20501;-84
2023/12/19 00:30:16;;;;;;;72.93;30.60;;;;;;;;;;5077031;28;20406;-84
2023/12/19 00:32:48;;;;;;;73.13;32.40;;;;;;;;;;5071239;28;20774;-85
2023/12/19 00:35:16;;;;;;;75.13;31.60;;;;;;;;;;5056879;28;20409;-84
2023/12/19 00:37:45;;;;;;;84.63;33.30;;;;;;;;;;5076263;28;20424;-83
2023/12/19 00:40:12;;;;;;;86.68;34.35;;;;;;;;;;5038644;28;20415;-84
2023/12/19 00:42:38;;;;;;;69.53;29.65;;;;;;;;;;5076085;28;20447;-84
2023/12/19 00:45:13;;;;;;;76.13;31.50;;;;;;;;;;5076096;28;20549;-84
2023/12/19 00:47:48;;;;;;;73.68;31.77;;;;;;;;;;5063224;28;20413;-83
2023/12/19 00:50:15;;;;;;;75.10;32.50;;;;;;;;;;5060302;28;20743;-85
2023/12/19 00:52:42;;;;;;;78.27;33.17;;;;;;;;;;5066663;28;20400;-84
2023/12/19 00:55:08;;;;;;;88.20;33.17;;;;;;;;;;5069720;28;20388;-85
2023/12/19 00:57:34;;;;;;;79.03;32.72;;;;;;;;;;5057096;28;20403;-84
2023/12/19 01:00:00;;;;;;;79.15;32.45;;;;;;;;;;5056762;28;20904;-85
2023/12/19 01:02:28;;;;;;;68.68;31.00;;;;;;;;;;5056509;28;20425;-84
2023/12/19 01:04:57;;;;;;;76.43;30.73;;;;;;;;;;5113032;27;20402;-83
2023/12/19 01:10:18;;;;;;;79.07;31.70;;;;;;;;;;5075964;28;20463;-84
2023/12/19 01:12:44;;;;;;;76.30;30.70;;;;;;;;;;5080281;28;20407;-84
2023/12/19 01:15:10;;;;;;;62.53;29.10;;;;;;;;;;5078348;28;20442;-84
2023/12/19 01:17:38;;;;;;;61.53;27.80;;;;;;;;;;5086460;28;21638;-84
2023/12/19 01:20:04;;;;;;;78.43;31.80;;;;;;;;;;5105736;28;20429;-84
2023/12/19 01:22:30;;;;;;;69.18;30.75;;;;;;;;;;5059926;28;20881;-83
2023/12/19 01:24:56;;;;;;;65.05;29.10;;;;;;;;;;5077200;28;20430;-85
2023/12/19 01:27:22;;;;;;;71.65;29.50;;;;;;;;;;5076033;28;20458;-85
2023/12/19 01:29:48;;;;;;;67.10;28.65;;;;;;;;;;5109756;27;20459;-83
2023/12/19 01:32:14;;;;;;;59.88;28.10;;;;;;;;;;5109897;28;20481;-84
2023/12/19 01:34:40;;;;;;;66.10;28.23;;;;;;;;;;5059264;28;20908;-84
2023/12/19 01:37:07;;;;;;;61.83;27.17;;;;;;;;;;5093337;28;20402;-83
2023/12/19 01:39:33;;;;;;;58.35;27.15;;;;;;;;;;5095976;28;20416;-84
2023/12/19 01:41:59;;;;;;;51.40;25.40;;;;;;;;;;5091721;28;20451;-82
2023/12/19 01:44:25;;;;;;;48.25;24.52;;;;;;;;;;5061600;28;20405;-84
2023/12/19 01:46:51;;;;;;;45.90;24.00;;;;;;;;;;5074779;28;20484;-83
2023/12/19 01:49:18;;;;;;;49.17;23.58;;;;;;;;;;5075724;28;20398;-83
2023/12/19 01:51:44;;;;;;;47.92;23.42;;;;;;;;;;5063562;28;20416;-83
2023/12/19 01:54:13;;;;;;;45.60;22.73;;;;;;;;;;5081345;28;20398;-83
2023/12/19 01:56:39;;;;;;;40.30;20.90;;;;;;;;;;5079701;28;20800;-83
2023/12/19 01:59:06;;;;;;;46.28;22.50;;;;;;;;;;5075202;28;20401;-83
2023/12/19 02:01:37;;;;;;;44.03;22.25;;;;;;;;;;5074730;28;20895;-83
2023/12/19 02:04:03;;;;;;;45.70;22.75;;;;;;;;;;5091671;28;20402;-83
2023/12/19 02:06:30;;;;;;;46.70;23.00;;;;;;;;;;5058732;28;20422;-83
2023/12/19 02:08:57;;;;;;;41.33;21.35;;;;;;;;;;5091874;28;20406;-82
2023/12/19 02:11:23;;;;;;;43.45;21.92;;;;;;;;;;5077661;28;20402;-83
2023/12/19 02:13:49;;;;;;;42.00;22.05;;;;;;;;;;5085573;28;20402;-83
2023/12/19 02:16:18;;;;;;;41.72;21.13;;;;;;;;;;5057280;28;20406;-83
2023/12/19 02:18:44;;;;;;;39.83;21.00;;;;;;;;;;5091713;28;20756;-84
2023/12/19 02:21:10;;;;;;;42.65;21.92;;;;;;;;;;5082018;28;20459;-85
2023/12/19 02:23:36;;;;;;;45.03;21.98;;;;;;;;;;5075676;28;20405;-84
2023/12/19 02:26:03;;;;;;;41.33;21.63;;;;;;;;;;5110236;27;20412;-84
2023/12/19 02:28:35;;;;;;;42.13;21.80;;;;;;;;;;5052636;28;20466;-84
2023/12/19 02:31:06;;;;;;;45.03;23.02;;;;;;;;;;5095376;28;20751;-84
2023/12/19 02:33:44;;;;;;;50.03;24.45;;;;;;;;;;5091255;28;20412;-84
2023/12/19 02:36:10;;;;;;;49.63;24.15;;;;;;;;;;5107272;28;20461;-84
2023/12/19 02:38:47;;;;;;;55.13;24.63;;;;;;;;;;5093166;28;20606;-85
2023/12/19 02:41:17;;;;;;;45.05;23.13;;;;;;;;;;5054356;28;20995;-85
2023/12/19 02:43:54;;;;;;;49.78;23.98;;;;;;;;;;5087032;28;20398;-84
2023/12/19 02:46:20;;;;;;;47.55;22.80;;;;;;;;;;5073087;28;20418;-84
2023/12/19 02:48:54;;;;;;;50.92;23.42;;;;;;;;;;5072449;28;20406;-84
2023/12/19 02:51:32;;;;;;;38.85;20.48;;;;;;;;;;5078302;28;20742;-84
2023/12/19 02:53:59;;;;;;;39.10;20.70;;;;;;;;;;5109337;27;20497;-84
2023/12/19 02:57:02;;;;;;;36.80;19.63;;;;;;;;;;5057299;28;20405;-84
2023/12/19 02:59:31;;;;;;;41.30;20.63;;;;;;;;;;5091520;28;20437;-84
2023/12/19 03:01:57;;;;;;;35.88;20.33;;;;;;;;;;5090844;28;20402;-84
2023/12/19 03:04:29;;;;;;;35.33;19.95;;;;;;;;;;5073436;28;20402;-84
2023/12/19 03:07:03;;;;;;;35.30;19.08;;;;;;;;;;5058309;28;20426;-84
2023/12/19 03:09:34;;;;;;;36.67;19.48;;;;;;;;;;5079106;28;20478;-84
2023/12/19 03:12:13;;;;;;;39.10;20.17;;;;;;;;;;5057198;28;20402;-84
2023/12/19 03:14:55;;;;;;;;;;;;;;;;;;;;;
2023/12/19 03:17:24;;;;;;;36.72;20.40;;;;;;;;;;5073597;28;20410;-84
2023/12/19 03:19:53;;;;;;;38.25;20.77;;;;;;;;;;5072890;28;20430;-84
2023/12/19 03:22:49;;;;;;;35.97;19.83;;;;;;;;;;5104489;28;20382;-85
2023/12/19 03:25:31;;;;;;;37.25;19.92;;;;;;;;;;5027632;28;20500;-84
2023/12/19 03:27:57;;;;;;;35.60;19.65;;;;;;;;;;5069133;28;20428;-85
2023/12/19 03:30:24;;;;;;;33.40;19.60;;;;;;;;;;5086933;28;21119;-85
2023/12/19 03:33:05;;;;;;;31.33;18.55;;;;;;;;;;5058491;28;20403;-86
2023/12/19 03:35:33;;;;;;;33.38;18.58;;;;;;;;;;5071103;28;20406;-85
2023/12/19 03:38:00;;;;;;;36.58;19.73;;;;;;;;;;5069261;28;20395;-85
2023/12/19 03:40:30;;;;;;;38.67;19.98;;;;;;;;;;5070213;28;20423;-85
2023/12/19 03:43:05;;;;;;;33.28;19.10;;;;;;;;;;5068557;28;20405;-86
2023/12/19 03:45:37;;;;;;;38.13;20.13;;;;;;;;;;5071624;28;20894;-86
2023/12/19 03:48:10;;;;;;;37.92;19.83;;;;;;;;;;5086336;28;20908;-85
2023/12/19 03:50:45;;;;;;;35.55;19.95;;;;;;;;;;5069804;28;20888;-85
2023/12/19 03:53:35;;;;;;;40.50;20.33;;;8.20;99.90;;;;;;5075941;28;20394;-85
2023/12/19 03:56:01;;;;;;;38.25;19.85;;;;;;;;;;5061052;28;20931;-85
2023/12/19 03:58:27;;;;;;;34.63;18.92;;;;;;;;;;5075316;28;20407;-85
2023/12/19 04:00:53;;;;;;;34.13;18.80;;;;;;;;;;5072000;28;20395;-85
2023/12/19 04:03:19;;;;;;;34.53;18.40;;;;;;;;;;5049569;28;20407;-85
2023/12/19 04:05:46;;;;;;;32.65;17.40;;;;;;;;;;5061076;28;20406;-85
2023/12/19 04:08:12;;;;;;;32.30;17.83;;;;;;;;;;5052901;28;20452;-86
2023/12/19 04:10:38;;;;;;;30.98;16.90;;;;;;;;;;5056604;28;20461;-84
2023/12/19 04:13:04;;;;;;;30.75;16.88;;;;;;;;;;5069008;28;20488;-85
2023/12/19 04:15:33;;;;;;;29.30;16.42;;;;;;;;;;5068843;28;20442;-85
2023/12/19 04:18:00;;;;;;;34.35;17.60;;;;;;;;;;5078525;28;20807;-85
2023/12/19 04:20:26;;;;;;;34.10;17.80;;;;;;;;;;5048231;28;20405;-86
2023/12/19 04:22:52;;;;;;;34.85;17.52;;;;;;;;;;5082275;28;20405;-85
2023/12/19 04:25:20;;;;;;;35.15;18.58;;;;;;;;;;5053708;28;20411;-86
2023/12/19 04:27:47;;;;;;;33.78;17.92;;;;;;;;;;5036787;28;20427;-85
2023/12/19 04:30:13;;;;;;;39.35;18.73;;;;;;;;;;5053875;28;20434;-85
2023/12/19 04:32:40;;;;;;;32.93;17.30;;;;;;;;;;5087816;28;20430;-85
2023/12/19 04:35:07;;;;;;;32.70;16.70;;;;;;;;;;5062398;28;20467;-84
2023/12/19 04:37:33;;;;;;;30.37;16.33;;;;;;;;;;5090050;28;20438;-85
2023/12/19 04:39:59;;;;;;;32.10;16.58;;;;;;;;;;5068998;28;20400;-85
2023/12/19 04:42:25;;;;;;;28.77;14.98;;;;;;;;;;5084543;28;20454;-85
2023/12/19 04:44:51;;;;;;;26.50;14.18;;;;;;;;;;5036730;28;20416;-85
2023/12/19 04:47:18;;;;;;;30.23;15.00;;;;;;;;;;5052257;28;20423;-84
2023/12/19 04:49:44;;;;;;;23.80;13.00;;;;;;;;;;5051951;28;20480;-85
2023/12/19 04:52:10;;;;;;;25.05;13.10;;;;;;;;;;5083741;28;20394;-85
2023/12/19 04:54:36;;;;;;;27.17;13.03;;;;;;;;;;5056014;28;20445;-85
2023/12/19 04:57:03;;;;;;;27.88;13.35;;;;;;;;;;5073042;28;20563;-85
2023/12/19 04:59:30;;;;;;;24.70;13.10;;;;;;;;;;5053233;28;20411;-84
2023/12/19 05:01:56;;;;;;;25.27;12.98;;;;;;;;;;5069419;28;20408;-84
2023/12/19 05:04:23;;;;;;;23.83;12.60;;;;;;;;;;5070730;28;20424;-84
2023/12/19 05:06:49;;;;;;;25.60;12.73;;;;;;;;;;5044099;28;20845;-85
2023/12/19 05:09:15;;;;;;;26.10;13.30;;;;;;;;;;5071704;28;20403;-84
2023/12/19 05:11:44;;;;;;;26.10;13.55;;;;;;;;;;5039415;28;20454;-84
2023/12/19 05:14:11;;;;;;;25.85;13.38;;;;;;;;;;5072331;28;20407;-84
2023/12/19 05:16:37;;;;;;;24.65;12.98;;;;;;;;;;5059819;28;20416;-85
2023/12/19 05:19:04;;;;;;;27.52;12.90;;;;;;;;;;5082458;28;20403;-84
2023/12/19 05:21:36;;;;;;;27.00;13.63;;;;;;;;;;5075724;28;20417;-84
2023/12/19 05:24:02;;;;;;;24.90;12.77;;;;;;;;;;5073812;28;20418;-84
2023/12/19 05:26:30;;;;;;;25.23;13.30;;;;;;;;;;5074011;28;20461;-84
2023/12/19 05:28:57;;;;;;;24.13;12.70;;;;;;;;;;5061035;28;20398;-84
2023/12/19 05:31:23;;;;;;;23.38;12.93;;;;;;;;;;5081440;28;20394;-82
2023/12/19 05:33:49;;;;;;;28.40;13.98;;;;;;;;;;5059052;28;20878;-83
2023/12/19 05:36:16;;;;;;;26.10;13.38;;;;;;;;;;5036424;28;20425;-83
2023/12/19 05:38:42;;;;;;;22.80;12.40;;;;;;;;;;5037053;28;20495;-82
2023/12/19 05:41:09;;;;;;;23.30;12.15;;;;;;;;;;5084691;28;20427;-83
2023/12/19 05:43:35;;;;;;;28.40;13.40;;;;;;;;;;5089600;28;20922;-83
2023/12/19 05:46:02;;;;;;;23.27;11.90;;;;;;;;;;5089629;28;20403;-82
2023/12/19 05:48:28;;;;;;;27.63;12.00;;;;;;;;;;5073574;28;20879;-83
2023/12/19 05:50:54;;;;;;;32.20;13.65;;;;;;;;;;5072862;28;20749;-82
2023/12/19 05:53:21;;;;;;;38.17;13.50;;;;;;;;;;5088594;28;20500;-82
2023/12/19 05:55:47;;;;;;;27.50;12.18;;;;;;;;;;5040280;28;20407;-82
2023/12/19 05:58:13;;;;;;;31.98;13.30;;;;;;;;;;5090405;28;20411;-83
2023/12/19 06:00:40;;;;;;;19.90;10.95;;;;;;;;;;5072328;28;20415;-82
2023/12/19 06:03:06;;;;;;;22.23;11.70;;;;;;;;;;5074469;28;21643;-80
2023/12/19 06:05:32;;;;;;;46.53;13.93;;;;;;;;;;5075787;28;20750;-80
2023/12/19 06:08:00;;;;;;;39.80;14.00;;;;;;;;;;5056826;28;20455;-81
2023/12/19 06:10:29;;;;;;;54.80;15.23;;;;;;;;;;5071171;28;20420;-81
2023/12/19 06:12:55;;;;;;;39.78;14.00;;;;;;;;;;5068347;28;20407;-80
2023/12/19 06:15:21;;;;;;;58.60;14.25;;;;;;;;;;5072049;28;20403;-81
2023/12/19 06:17:49;;;;;;;49.65;14.20;;;;;;;;;;5089550;28;20745;-82
2023/12/19 06:20:15;;;;;;;38.65;13.55;;;;;;;;;;5053721;28;20465;-82
2023/12/19 06:22:42;;;;;;;46.97;14.27;;;;;;;;;;5058253;28;20409;-82
2023/12/19 06:25:08;;;;;;;122.97;17.73;;;;;;;;;;5084057;28;20486;-83
2023/12/19 06:27:35;;;;;;;64.97;15.32;;;;;;;;;;5069081;28;20423;-84
2023/12/19 06:30:02;;;;;;;34.22;12.77;;;;;;;;;;5050582;28;20407;-83
2023/12/19 06:32:28;;;;;;;28.05;11.75;;;;;;;;;;5049632;28;20902;-83
2023/12/19 06:34:57;;;;;;;35.50;13.50;;;;;;;;;;5087417;28;20793;-83
2023/12/19 06:37:23;;;;;;;46.42;13.70;;;;;;;;;;5071381;28;20404;-84
2023/12/19 06:39:49;;;;;;;44.58;13.20;;;;;;;;;;5054247;28;20403;-84
2023/12/19 06:42:16;;;;;;;21.77;11.23;;;;;;;;;;5054139;28;20752;-84
2023/12/19 06:44:42;;;;;;;28.63;11.15;;;;;;;;;;5055732;28;20398;-84
2023/12/19 06:47:08;;;;;;;34.13;12.50;;;;;;;;;;5061418;28;20420;-83
2023/12/19 06:49:34;;;;;;;22.13;11.30;;;;;;;;;;5071394;28;20901;-83
2023/12/19 06:52:00;;;;;;;27.23;11.82;;;;;;;;;;5072896;28;20404;-85
2023/12/19 06:54:26;;;;;;;73.72;14.25;;;;;;;;;;5076315;28;20402;-83
2023/12/19 06:56:52;;;;;;;16.13;10.23;;;;;;;;;;5074241;28;20432;-84
2023/12/19 06:59:18;;;;;;;17.80;9.52;;;;;;;;;;5048966;28;20431;-83
2023/12/19 07:01:44;;;;;;;19.73;10.73;;;;;;;;;;5095742;28;20419;-84
2023/12/19 07:04:10;;;;;;;26.90;11.63;;;;;;;;;;5057313;28;20454;-83
2023/12/19 07:06:39;;;;;;;16.23;9.50;;;;;;;;;;5061498;28;20421;-84
2023/12/19 07:09:05;;;;;;;17.05;9.57;;;;;;;;;;5089053;28;20400;-83
2023/12/19 07:11:31;;;;;;;17.15;9.45;;;;;;;;;;5087277;28;20396;-83
2023/12/19 07:13:57;;;;;;;17.25;9.77;;;;;;;;;;5070991;28;20491;-82
2023/12/19 07:16:25;;;;;;;15.67;9.10;;;;;;;;;;5070468;28;20455;-81
2023/12/19 07:18:51;;;;;;;15.23;8.80;;;;;;;;;;5072113;28;20478;-82
2023/12/19 07:21:21;;;;;;;17.77;9.43;;;;;;;;;;5068008;28;20397;-83
2023/12/19 07:23:48;;;;;;;14.63;8.93;;;;;;;;;;5070484;28;20404;-83
2023/12/19 07:26:23;;;;;;;15.35;8.82;;;;;;;;;;5073516;28;20495;-83
2023/12/19 07:28:50;;;;;;;23.70;10.32;;;;;;;;;;5108619;27;20819;-83
2023/12/19 07:31:27;;;;;;;15.02;8.60;;;;;;;;;;5077307;28;20799;-83
2023/12/19 07:34:00;;;;;;;16.27;8.93;;;;;;;;;;5065725;28;20445;-82
2023/12/19 07:36:26;;;;;;;18.27;9.47;;;;;;;;;;5077333;28;20493;-82
2023/12/19 07:38:52;;;;;;;15.15;8.90;;;;;;;;;;5067662;28;20492;-82
2023/12/19 07:41:19;;;;;;;17.35;9.68;;;;;;;;;;5106875;28;20398;-82
2023/12/19 07:43:45;;;;;;;16.90;9.50;;;;;;;;;;5072979;28;20782;-82
2023/12/19 07:46:12;;;;;;;17.35;9.90;;;;;;;;;;5090249;28;20485;-82
2023/12/19 07:48:39;;;;;;;20.00;9.73;;;;;;;;;;5088147;28;20419;-82
2023/12/19 07:51:06;;;;;;;20.63;10.20;;;;;;;;;;5091330;28;20411;-81
2023/12/19 07:53:33;;;;;;;23.45;11.00;;;;;;;;;;5095912;28;20394;-83
2023/12/19 07:56:07;;;;;;;22.77;11.63;;;;;;;;;;5088435;28;20876;-82
2023/12/19 07:58:33;;;;;;;19.95;10.68;;;;;;;;;;5058643;28;20479;-82
2023/12/19 08:00:59;;;;;;;20.27;10.48;;;;;;;;;;5095491;28;20404;-82
2023/12/19 08:03:25;;;;;;;22.20;10.63;;;;;;;;;;5107255;28;20409;-82
2023/12/19 08:05:54;;;;;;;20.10;10.38;;;;;;;;;;5072850;28;20504;-83
2023/12/19 08:08:28;;;;;;;18.93;10.30;;;;;;;;;;5100148;28;20833;-81
2023/12/19 08:13:59;;;;;;;18.77;9.57;;;;;;;;;;5084295;28;20385;-81
2023/12/19 08:16:25;;;;;;;18.15;10.05;;;;;;;;;;5042669;28;20406;-81
2023/12/19 08:18:51;;;;;;;17.90;10.30;;;;;;;;;;5109242;28;20413;-82
2023/12/19 08:21:18;;;;;;;18.15;10.40;;;;;;;;;;5107185;28;20409;-81
2023/12/19 08:23:45;;;;;;;20.83;11.38;;;;;;;;;;5107148;28;20426;-80
2023/12/19 08:26:11;;;;;;;19.60;10.90;;;;;;;;;;5089788;28;20408;-80
2023/12/19 08:28:41;;;;;;;21.27;11.40;;;;;;;;;;5061757;28;20503;-79
2023/12/19 08:31:07;;;;;;;20.13;11.23;;;;;;;;;;5089842;28;20400;-80
2023/12/19 08:33:33;;;;;;;20.98;11.45;;;;;;;;;;5071066;28;20400;-80
2023/12/19 08:36:00;;;;;;;20.17;11.05;;;;;;;;;;5110203;28;20395;-79
2023/12/19 08:38:26;;;;;;;21.10;11.30;;;;;;;;;;5078207;28;20406;-82
2023/12/19 08:40:53;;;;;;;32.00;14.00;;;;;;;;;;5059824;28;20484;-80
2023/12/19 08:43:38;;;;;;;23.35;11.98;;;;;;;;;;5106283;28;20409;-80
2023/12/19 08:46:14;;;;;;;21.13;11.30;;;;;;;;;;5110336;27;20468;-80
2023/12/19 08:48:48;;;;;;;21.20;11.32;;;;;;;;;;5080411;28;20422;-80
2023/12/19 08:51:21;;;;;;;25.50;12.02;;;;;;;;;;5081627;28;20406;-81
2023/12/19 08:54:16;;;;;;;24.40;12.30;;;;;;;;;;5091884;28;20969;-81
2023/12/19 08:57:28;;;;;;;24.30;11.75;;;;;;;;;;4979889;28;20412;-81
2023/12/19 09:00:07;;;;;;;22.08;11.60;;;;;;;;;;4954404;28;20404;-79
2023/12/19 09:02:58;;;;;;;25.20;12.63;;;;;;;;;;4931889;28;20439;-81
2023/12/19 09:05:37;;;;;;;20.25;10.23;;;;;;;;;;4960013;28;20856;-80
2023/12/19 09:08:16;;;;;;;18.80;10.40;;;;;;;;;;4958410;28;20793;-80
2023/12/19 09:10:42;;;;;;;19.85;10.55;;;;;;;;;;4985323;28;20762;-81
2023/12/19 09:13:09;;;;;;;18.00;10.30;;;;;;;;;;4940396;28;20444;-80
2023/12/19 09:15:44;;;;;;;18.85;10.52;;;;;;;;;;4955822;28;20507;-82
2023/12/19 09:18:10;;;;;;;19.10;10.30;;;;;;;;;;4953485;28;20463;-82
2023/12/19 09:20:36;;;;;;;29.30;11.43;;;;;;;;;;4925566;28;20477;-82
2023/12/19 09:23:02;;;;;;;21.02;10.73;;;;;;;;;;4956181;28;20432;-81
2023/12/19 09:25:29;;;;;;;17.35;10.05;;;;;;;;;;4936618;29;20418;-80
2023/12/19 09:27:56;;;;;;;18.98;10.70;;;;;;;;;;4974543;28;20425;-80
2023/12/19 09:30:23;;;;;;;22.05;11.32;;;;;;;;;;5019335;28;20425;-81
2023/12/19 09:32:49;;;;;;;20.98;10.55;;;;;;;;;;5035860;28;20427;-81
2023/12/19 09:35:15;;;;;;;24.20;10.23;;;;;;;;;;5061634;28;20423;-80
2023/12/19 09:37:42;;;;;;;19.83;11.18;;;;;;;;;;5018384;28;20420;-80
2023/12/19 09:40:17;;;;;;;20.17;11.15;;;;;;;;;;5059972;28;20429;-80
2023/12/19 09:42:49;;;;;;;23.23;12.18;;;;;;;;;;5070325;28;20395;-80
2023/12/19 09:45:15;;;;;;;19.80;10.90;;;;;;;;;;5020003;28;20435;-78
2023/12/19 09:47:43;;;;;;;21.60;11.55;;;;;;;;;;5072332;28;20429;-77
2023/12/19 09:50:37;;;;;;;23.15;11.50;;;;;;;;;;5067230;28;20525;-80
2023/12/19 09:53:33;;;;;;;22.40;11.63;;;;;;;;;;5000368;28;20979;-81
2023/12/19 09:56:02;;;;;;;21.47;11.33;;;;;;;;;;4991853;28;20490;-80
2023/12/19 09:58:29;;;;;;;23.35;11.80;;;;;;;;;;4973571;28;20414;-81
2023/12/19 10:00:58;;;;;;;24.10;12.35;;;;;;;;;;4981335;28;20436;-80
2023/12/19 10:03:24;;;;;;;22.52;11.80;;;;;;;;;;4983428;28;20456;-80
2023/12/19 10:05:52;;;;;;;22.83;11.67;;;;;;;;;;5007297;28;21028;-81
2023/12/19 10:08:21;;;;;;;25.95;12.70;;;;;;;;;;4991911;28;20437;-81
2023/12/19 10:10:56;;;;;;;27.10;13.20;;;;;;;;;;4974075;28;20529;-80
2023/12/19 10:13:41;;;;;;;24.48;12.70;;;;;;;;;;5004851;28;20434;-80
2023/12/19 10:16:17;;;;;;;24.67;12.48;;;;;;;;;;4990280;28;20405;-80
2023/12/19 10:18:44;;;;;;;28.67;14.20;;;;;;;;;;4973065;28;20427;-81
2023/12/19 10:21:19;;;;;;;32.78;14.30;;;;;;;;;;4978486;28;20405;-80
2023/12/19 10:23:48;;;;;;;25.67;13.38;;;;;;;;;;4971652;28;20988;-81
2023/12/19 10:26:14;;;;;;;29.35;14.32;;;;;;;;;;4975869;28;20419;-81
2023/12/19 10:29:05;;;;;;;33.67;15.97;;;;;;;;;;4974187;28;21062;-81
2023/12/19 10:32:16;;;;;;;51.88;17.52;;;;;;;;;;4984222;28;20509;-81
2023/12/19 10:34:52;;;;;;;30.77;15.30;;;;;;;;;;4941967;28;20412;-80
2023/12/19 10:41:17;;;;;;;;;;;;;;;;;;;;;
2023/12/19 10:50:01;;;;;;;21.58;11.13;;;;;;;;;;4943030;28;20451;-81
2023/12/19 10:52:28;;;;;;;32.85;13.65;;;;;;;;;;5017755;28;20604;-80
2023/12/19 10:55:08;;;;;;;23.17;12.20;;;;;;;;;;4995958;28;20417;-80
2023/12/19 10:57:40;;;;;;;21.48;11.52;;;;;;;;;;5016520;28;20760;-81
2023/12/19 11:00:10;;;;;;;23.25;11.27;;;;;;;;;;5019217;28;20407;-81
2023/12/19 11:02:48;;;;;;;24.50;11.77;;;;;;;;;;5056972;28;20401;-81
2023/12/19 11:05:27;;;;;;;20.08;10.45;;;;;;;;;;5063152;28;20406;-82
2023/12/19 11:07:57;;;;;;;17.80;9.77;;;;;;;;;;5079299;28;20427;-81
2023/12/19 11:10:25;;;;;;;17.35;9.13;;;;;;;;;;5054825;28;20397;-81
2023/12/19 11:12:53;;;;;;;101.05;14.27;;;;;;;;;;5083494;28;20568;-82
2023/12/19 11:15:20;;;;;;;16.08;8.73;;;;;;;;;;5072976;28;20450;-82
2023/12/19 11:17:53;;;;;;;15.50;8.75;;;;;;;;;;5044524;28;20613;-82
2023/12/19 11:20:45;;;;;;;15.37;8.37;;;;;;;;;;5062911;28;20406;-82
2023/12/19 11:23:26;;;;;;;44.83;11.95;;;;;;;;;;5051584;28;20921;-81
2023/12/19 11:25:55;;;;;;;16.10;8.90;;;;;;;;;;5078864;28;20407;-82
2023/12/19 11:28:37;;;;;;;18.25;9.10;;;;;;;;;;5098461;27;20894;-82
2023/12/19 11:31:03;;;;;;;16.63;9.30;;;;;;;;;;5066479;28;20426;-81
2023/12/19 11:33:30;;;;;;;29.20;10.88;;;;;;;;;;5070703;28;20399;-81
2023/12/19 11:36:13;;;;;;;18.38;9.73;;;;;;;;;;5059228;28;20422;-82
2023/12/19 11:38:39;;;;;;;19.15;10.10;;;;;;;;;;5091503;28;20508;-80
2023/12/19 11:41:05;;;;;;;20.52;10.43;;;;;;;;;;5091267;28;20398;-81
2023/12/19 11:43:31;;;;;;;21.87;10.80;;;;;;;;;;5073944;28;20429;-81
2023/12/19 11:46:02;;;;;;;21.85;10.50;;;;;;;;;;5092854;28;20405;-81
2023/12/19 11:48:44;;;;;;;20.60;10.35;;;;;;;;;;5089959;28;20456;-80
2023/12/19 11:51:10;;;;;;;20.50;10.15;;;;;;;;;;5072930;28;20409;-80
2023/12/19 11:53:40;;;;;;;28.00;11.50;;;;;;;;;;5063766;28;20424;-80
2023/12/19 11:56:12;;;;;;;18.07;9.80;;;;;;;;;;5103816;28;20886;-80
2023/12/19 11:58:44;;;;;;;17.00;9.57;;;;;;;;;;5090273;28;20527;-81
2023/12/19 12:01:11;;;;;;;16.30;9.02;;;;;;;;;;5092843;28;20412;-80
2023/12/19 12:03:37;;;;;;;18.40;10.00;;;;;;;;;;5110195;27;21191;-79
2023/12/19 12:06:04;;;;;;;19.33;10.20;;;;;;;;;;5061430;28;20750;-81
2023/12/19 12:08:30;;;;;;;16.77;9.07;;;;;;;;;;5098007;28;20433;-80
2023/12/19 12:11:00;;;;;;;20.00;10.85;;;;;;;;;;5093086;28;20405;-81
2023/12/19 12:13:30;;;;;;;26.35;11.02;;;;;;;;;;5081663;28;20401;-81
2023/12/19 12:15:57;;;;;;;17.65;9.35;;;;;;;;;;5071574;28;20450;-81
2023/12/19 12:18:26;;;;;;;16.98;9.38;;;;;;;;;;5055581;28;20413;-81
2023/12/19 12:20:54;;;;;;;20.70;10.10;;;;;;;;;;5071486;28;20477;-81
2023/12/19 12:23:20;;;;;;;69.32;13.68;;;;;;;;;;5084794;28;20549;-80
2023/12/19 12:25:59;;;;;;;23.73;11.07;;;;;;;;;;5101302;28;20464;-80
2023/12/19 12:28:29;;;;;;;18.00;9.90;;;;;;;;;;5071238;28;20465;-81
2023/12/19 12:30:59;;;;;;;20.83;10.38;;;;;;;;;;5053932;28;20431;-82
2023/12/19 12:33:27;;;;;;;18.10;10.02;;;;;;;;;;5087015;28;20393;-82
2023/12/19 12:35:53;;;;;;;19.55;10.20;;;;;;;;;;5112695;27;20956;-80
2023/12/19 12:38:20;;;;;;;23.02;10.75;;;;;;;;;;5109697;28;20397;-81
2023/12/19 12:40:59;;;;;;;21.23;10.32;;;;;;;;;;5097239;28;20395;-81
2023/12/19 12:43:25;;;;;;;21.83;10.75;;;;;;;;;;5061619;28;20402;-81
2023/12/19 12:46:05;;;;;;;22.50;11.52;;;;;;;;;;5094328;28;20406;-82
2023/12/19 12:48:31;;;;;;;23.17;10.95;;;;;;;;;;5088826;28;20430;-80
2023/12/19 12:50:57;;;;;;;17.75;9.20;;;;;;;;;;5094974;28;20867;-82
2023/12/19 12:53:24;;;;;;;18.47;9.50;;;;;;;;;;5095449;28;20901;-82
2023/12/19 12:56:11;;;;;;;19.10;9.63;;;;;;;;;;5060924;28;20402;-81
2023/12/19 12:58:41;;;;;;;16.20;8.97;;;;;;;;;;5064117;28;20397;-80
2023/12/19 13:01:14;;;;;;;16.67;8.75;;;;;;;;;;5095035;28;20401;-80
2023/12/19 13:03:50;;;;;;;16.65;8.52;;;;;;;;;;5111076;28;20455;-80
2023/12/19 13:06:22;;;;;;;15.43;8.23;;;;;;;;;;5060402;28;20921;-82
2023/12/19 13:08:48;;;;;;;14.53;8.00;;;;;;;;;;5094622;28;20546;-82
2023/12/19 13:11:15;;;;;;;13.85;7.85;;;;;;;;;;5072284;28;20477;-82
2023/12/19 13:13:41;;;;;;;14.60;8.00;;;;;;;;;;5091653;28;20402;-82
2023/12/19 13:16:07;;;;;;;12.85;6.88;;;;;;;;;;5110348;28;20398;-81
2023/12/19 13:18:34;;;;;;;11.20;6.55;;;;;;;;;;5076233;28;20406;-81
2023/12/19 13:21:00;;;;;;;10.15;5.95;;;;;;;;;;5076356;28;20409;-82
2023/12/19 13:23:26;;;;;;;11.43;6.07;;;;;;;;;;5092241;28;20905;-82
2023/12/19 13:25:53;;;;;;;10.40;5.60;;;;;;;;;;5076560;28;20424;-82
2023/12/19 13:28:19;;;;;;;10.82;5.43;;;;;;;;;;5074941;28;20472;-81
2023/12/19 13:30:45;;;;;;;10.82;5.10;;;;;;;;;;5075303;28;20916;-81
2023/12/19 13:33:12;;;;;;;9.57;4.80;;;;;;;;;;5076313;28;20394;-81
2023/12/19 13:35:39;;;;;;;10.10;4.93;;;;;;;;;;5095028;28;20472;-81
2023/12/19 13:38:05;;;;;;;8.68;5.20;;;;;;;;;;5092667;28;20400;-82
2023/12/19 13:40:32;;;;;;;9.13;4.95;;;;;;;;;;5059447;28;20754;-82
2023/12/19 13:42:58;;;;;;;9.60;5.00;;;;;;;;;;5075704;28;20627;-81
2023/12/19 13:45:27;;;;;;;9.98;4.68;;;;;;;;;;5110661;28;20405;-81
2023/12/19 13:47:54;;;;;;;8.82;5.10;;;;;;;;;;5073881;28;20499;-80
2023/12/19 13:50:20;;;;;;;8.00;4.53;;;;;;;;;;5063096;28;21004;-81
2023/12/19 13:52:49;;;;;;;7.20;4.35;;;;;;;;;;5098987;28;20394;-81
2023/12/19 13:55:15;;;;;;;8.70;4.07;;;;;;;;;;5108979;28;20966;-82
2023/12/19 13:57:42;;;;;;;7.17;3.90;;;;;;;;;;5116487;27;20502;-81
2023/12/19 14:00:09;;;;;;;7.18;4.07;;;;;;;;;;5074285;28;20401;-80
2023/12/19 14:02:37;;;;;;;9.38;4.63;;;;;;;;;;5082809;28;20435;-80
2023/12/19 14:05:05;;;;;;;9.73;4.18;;;;;;;;;;5074598;28;20418;-80
2023/12/19 14:07:31;;;;;;;14.45;8.45;;;;;;;;;;5053542;28;20459;-81
2023/12/19 14:09:57;;;;;;;9.02;5.55;;;;;;;;;;5070742;28;20409;-80
2023/12/19 14:12:23;;;;;;;6.63;3.90;;;;;;;;;;5091374;28;20796;-80
2023/12/19 14:14:49;;;;;;;6.90;3.40;;;;;;;;;;5071435;28;20413;-80
2023/12/19 14:17:15;;;;;;;5.10;3.10;;;;;;;;;;5090193;28;20406;-81
2023/12/19 14:19:42;;;;;;;5.72;3.10;;;;;;;;;;5073223;28;20463;-82
2023/12/19 14:22:08;;;;;;;5.83;3.00;;;;;;;;;;5090131;28;20963;-82
2023/12/19 14:24:34;;;;;;;4.60;2.50;;;;;;;;;;5091759;28;20483;-82
2023/12/19 14:27:00;;;;;;;4.50;2.40;;;;;;;;;;5073236;28;20425;-81
2023/12/19 14:29:26;;;;;;;4.30;2.20;;;;;;;;;;5071711;28;20774;-80
2023/12/19 14:31:52;;;;;;;5.13;2.40;;;;;;;;;;5087228;28;20513;-81
2023/12/19 14:34:19;;;;;;;4.78;2.33;;;;;;;;;;5047768;28;20535;-80
2023/12/19 14:36:45;;;;;;;5.10;2.50;;;;;;;;;;5074026;28;20513;-81
2023/12/19 14:39:12;;;;;;;4.43;2.55;;;;;;;;;;5102083;28;20396;-80
2023/12/19 14:41:44;;;;;;;5.15;2.50;;;;;;;;;;5072496;28;20904;-80
2023/12/19 14:44:13;;;;;;;6.07;3.03;;;;;;;;;;5075380;28;20478;-80
2023/12/19 14:46:39;;;;;;;6.38;2.90;;;;;;;;;;5110382;27;20432;-82
2023/12/19 14:49:05;;;;;;;7.35;3.60;;;;;;;;;;5075648;28;20434;-81
2023/12/19 14:51:31;;;;;;;5.90;3.30;;;;;;;;;;5096167;27;20420;-81
2023/12/19 14:53:57;;;;;;;5.80;3.30;;;;;;;;;;5087180;28;20409;-81